sensor_id;sensor_type;location;lat;lon;timestamp;P1;durP1;ratioP1;P2;durP2;ratioP2
10725;SDS011;5414;59.782;16.378;2023-06-24T00:02:08;0.70;;;0.70;;
10725;SDS011;5414;59.782;16.378;2023-06-24T00:04:34;0.80;;;0.80;;
10725;SDS011;5414;59.782;16.378;2023-06-24T00:07:00;0.80;;;0.70;;
10725;SDS011;5414;59.782;16.378;2023-06-24T00:09:27;1.37;;;0.70;;
10725;SDS011;5414;59.782;16.378;2023-06-24T00:11:54;0.83;;;0.70;;
10725;SDS011;5414;59.782;16.378;2023-06-24T00:14:20;0.80;;;0.80;;
10725;SDS011;5414;59.782;16.378;2023-06-24T00:16:50;0.83;;;0.83;;
10725;SDS011;5414;59.782;16.378;2023-06-24T00:19:20;1.53;;;0.90;;
10725;SDS011;5414;59.782;16.378;2023-06-24T00:21:46;0.73;;;0.73;;
10725;SDS011;5414;59.782;16.378;2023-06-24T00:24:12;0.83;;;0.83;;
10725;SDS011;5414;59.782;16.378;2023-06-24T00:26:38;0.70;;;0.70;;
10725;SDS011;5414;59.782;16.378;2023-06-24T00:29:04;0.93;;;0.93;;
10725;SDS011;5414;59.782;16.378;2023-06-24T00:31:30;1.30;;;0.90;;
10725;SDS011;5414;59.782;16.378;2023-06-24T00:33:56;1.33;;;0.90;;
10725;SDS011;5414;59.782;16.378;2023-06-24T00:36:22;1.93;;;1.00;;
10725;SDS011;5414;59.782;16.378;2023-06-24T00:38:48;0.80;;;0.80;;
10725;SDS011;5414;59.782;16.378;2023-06-24T00:41:16;1.00;;;0.90;;
10725;SDS011;5414;59.782;16.378;2023-06-24T00:43:43;0.83;;;0.83;;
10725;SDS011;5414;59.782;16.378;2023-06-24T00:46:09;1.30;;;0.83;;
10725;SDS011;5414;59.782;16.378;2023-06-24T00:48:36;0.87;;;0.87;;
10725;SDS011;5414;59.782;16.378;2023-06-24T00:51:02;1.43;;;0.80;;
10725;SDS011;5414;59.782;16.378;2023-06-24T00:53:28;1.07;;;0.97;;
10725;SDS011;5414;59.782;16.378;2023-06-24T00:55:54;1.00;;;0.90;;
10725;SDS011;5414;59.782;16.378;2023-06-24T00:58:21;2.50;;;1.00;;
10725;SDS011;5414;59.782;16.378;2023-06-24T01:00:47;1.27;;;1.17;;
10725;SDS011;5414;59.782;16.378;2023-06-24T01:03:22;1.30;;;1.00;;
10725;SDS011;5414;59.782;16.378;2023-06-24T01:05:50;0.80;;;0.80;;
10725;SDS011;5414;59.782;16.378;2023-06-24T01:08:17;1.10;;;1.00;;
10725;SDS011;5414;59.782;16.378;2023-06-24T01:10:44;1.47;;;1.00;;
10725;SDS011;5414;59.782;16.378;2023-06-24T01:13:10;0.87;;;0.80;;
10725;SDS011;5414;59.782;16.378;2023-06-24T01:15:37;1.10;;;1.00;;
10725;SDS011;5414;59.782;16.378;2023-06-24T01:23:20;0.93;;;0.93;;
10725;SDS011;5414;59.782;16.378;2023-06-24T01:33:52;0.97;;;0.97;;
10725;SDS011;5414;59.782;16.378;2023-06-24T01:36:21;0.80;;;0.80;;
10725;SDS011;5414;59.782;16.378;2023-06-24T01:38:52;1.10;;;1.00;;
10725;SDS011;5414;59.782;16.378;2023-06-24T01:41:21;2.07;;;1.10;;
10725;SDS011;5414;59.782;16.378;2023-06-24T01:43:48;1.03;;;1.00;;
10725;SDS011;5414;59.782;16.378;2023-06-24T01:46:15;1.03;;;0.93;;
10725;SDS011;5414;59.782;16.378;2023-06-24T01:48:43;1.47;;;0.90;;
10725;SDS011;5414;59.782;16.378;2023-06-24T01:51:11;1.30;;;1.20;;
10725;SDS011;5414;59.782;16.378;2023-06-24T01:53:39;1.37;;;1.00;;
10725;SDS011;5414;59.782;16.378;2023-06-24T01:56:08;1.10;;;1.00;;
10725;SDS011;5414;59.782;16.378;2023-06-24T01:58:36;1.10;;;1.00;;
10725;SDS011;5414;59.782;16.378;2023-06-24T02:01:02;2.50;;;1.10;;
10725;SDS011;5414;59.782;16.378;2023-06-24T02:03:29;1.27;;;0.90;;
10725;SDS011;5414;59.782;16.378;2023-06-24T02:05:57;1.20;;;1.10;;
10725;SDS011;5414;59.782;16.378;2023-06-24T02:08:25;1.40;;;1.20;;
10725;SDS011;5414;59.782;16.378;2023-06-24T02:10:52;0.97;;;0.97;;
10725;SDS011;5414;59.782;16.378;2023-06-24T02:13:18;0.80;;;0.80;;
10725;SDS011;5414;59.782;16.378;2023-06-24T02:15:45;3.37;;;1.30;;
10725;SDS011;5414;59.782;16.378;2023-06-24T02:18:13;1.37;;;0.90;;
10725;SDS011;5414;59.782;16.378;2023-06-24T02:20:40;1.67;;;1.13;;
10725;SDS011;5414;59.782;16.378;2023-06-24T02:23:08;1.60;;;1.10;;
10725;SDS011;5414;59.782;16.378;2023-06-24T02:25:35;1.10;;;1.10;;
10725;SDS011;5414;59.782;16.378;2023-06-24T02:28:04;1.03;;;0.93;;
10725;SDS011;5414;59.782;16.378;2023-06-24T02:30:30;1.97;;;1.20;;
10725;SDS011;5414;59.782;16.378;2023-06-24T02:32:56;1.23;;;1.13;;
10725;SDS011;5414;59.782;16.378;2023-06-24T02:35:23;1.37;;;1.20;;
10725;SDS011;5414;59.782;16.378;2023-06-24T02:37:49;1.43;;;1.23;;
10725;SDS011;5414;59.782;16.378;2023-06-24T02:40:15;1.10;;;1.00;;
10725;SDS011;5414;59.782;16.378;2023-06-24T02:42:41;0.90;;;0.90;;
10725;SDS011;5414;59.782;16.378;2023-06-24T02:45:08;1.20;;;1.10;;
10725;SDS011;5414;59.782;16.378;2023-06-24T02:47:34;1.10;;;1.00;;
10725;SDS011;5414;59.782;16.378;2023-06-24T02:50:02;1.00;;;1.00;;
10725;SDS011;5414;59.782;16.378;2023-06-24T02:52:29;2.00;;;1.40;;
10725;SDS011;5414;59.782;16.378;2023-06-24T02:54:58;1.63;;;1.30;;
10725;SDS011;5414;59.782;16.378;2023-06-24T02:57:24;1.17;;;1.17;;
10725;SDS011;5414;59.782;16.378;2023-06-24T02:59:51;1.33;;;1.20;;
10725;SDS011;5414;59.782;16.378;2023-06-24T03:02:17;1.63;;;1.20;;
10725;SDS011;5414;59.782;16.378;2023-06-24T03:04:44;1.30;;;1.20;;
10725;SDS011;5414;59.782;16.378;2023-06-24T03:07:10;1.43;;;1.20;;
10725;SDS011;5414;59.782;16.378;2023-06-24T03:09:36;1.37;;;1.27;;
10725;SDS011;5414;59.782;16.378;2023-06-24T03:12:05;1.40;;;1.30;;
10725;SDS011;5414;59.782;16.378;2023-06-24T03:14:31;1.40;;;1.30;;
10725;SDS011;5414;59.782;16.378;2023-06-24T03:16:57;1.33;;;1.23;;
10725;SDS011;5414;59.782;16.378;2023-06-24T03:19:23;2.20;;;1.50;;
10725;SDS011;5414;59.782;16.378;2023-06-24T03:21:49;1.73;;;1.47;;
10725;SDS011;5414;59.782;16.378;2023-06-24T03:24:17;2.40;;;1.13;;
10725;SDS011;5414;59.782;16.378;2023-06-24T03:26:43;1.30;;;1.20;;
10725;SDS011;5414;59.782;16.378;2023-06-24T03:29:09;1.10;;;1.10;;
10725;SDS011;5414;59.782;16.378;2023-06-24T03:31:36;1.50;;;1.40;;
10725;SDS011;5414;59.782;16.378;2023-06-24T03:34:02;1.80;;;1.70;;
10725;SDS011;5414;59.782;16.378;2023-06-24T03:36:28;2.40;;;1.30;;
10725;SDS011;5414;59.782;16.378;2023-06-24T03:38:54;1.33;;;1.23;;
10725;SDS011;5414;59.782;16.378;2023-06-24T03:41:20;1.60;;;1.27;;
10725;SDS011;5414;59.782;16.378;2023-06-24T03:43:46;4.07;;;1.53;;
10725;SDS011;5414;59.782;16.378;2023-06-24T03:46:12;1.40;;;1.30;;
10725;SDS011;5414;59.782;16.378;2023-06-24T03:48:38;1.20;;;1.10;;
10725;SDS011;5414;59.782;16.378;2023-06-24T03:51:05;3.30;;;1.50;;
10725;SDS011;5414;59.782;16.378;2023-06-24T03:53:31;1.87;;;1.30;;
10725;SDS011;5414;59.782;16.378;2023-06-24T03:55:58;1.47;;;1.37;;
10725;SDS011;5414;59.782;16.378;2023-06-24T03:58:24;1.40;;;1.30;;
10725;SDS011;5414;59.782;16.378;2023-06-24T04:00:50;2.10;;;1.40;;
10725;SDS011;5414;59.782;16.378;2023-06-24T04:03:16;1.60;;;1.50;;
10725;SDS011;5414;59.782;16.378;2023-06-24T04:05:45;1.50;;;1.40;;
10725;SDS011;5414;59.782;16.378;2023-06-24T04:08:11;1.60;;;1.50;;
10725;SDS011;5414;59.782;16.378;2023-06-24T04:10:37;1.67;;;1.57;;
10725;SDS011;5414;59.782;16.378;2023-06-24T04:13:03;1.60;;;1.50;;
10725;SDS011;5414;59.782;16.378;2023-06-24T04:15:29;1.67;;;1.50;;
10725;SDS011;5414;59.782;16.378;2023-06-24T04:17:55;2.70;;;1.73;;
10725;SDS011;5414;59.782;16.378;2023-06-24T04:20:21;1.70;;;1.60;;
10725;SDS011;5414;59.782;16.378;2023-06-24T04:22:47;2.00;;;1.63;;
10725;SDS011;5414;59.782;16.378;2023-06-24T04:25:13;1.97;;;1.60;;
10725;SDS011;5414;59.782;16.378;2023-06-24T04:27:39;1.60;;;1.50;;
10725;SDS011;5414;59.782;16.378;2023-06-24T04:30:06;1.57;;;1.47;;
10725;SDS011;5414;59.782;16.378;2023-06-24T04:32:32;1.50;;;1.40;;
10725;SDS011;5414;59.782;16.378;2023-06-24T04:34:58;1.87;;;1.70;;
10725;SDS011;5414;59.782;16.378;2023-06-24T04:37:25;1.73;;;1.63;;
10725;SDS011;5414;59.782;16.378;2023-06-24T04:39:51;1.50;;;1.40;;
10725;SDS011;5414;59.782;16.378;2023-06-24T04:42:18;1.67;;;1.57;;
10725;SDS011;5414;59.782;16.378;2023-06-24T04:44:44;1.83;;;1.33;;
10725;SDS011;5414;59.782;16.378;2023-06-24T04:47:10;3.23;;;1.60;;
10725;SDS011;5414;59.782;16.378;2023-06-24T04:49:38;1.90;;;1.50;;
10725;SDS011;5414;59.782;16.378;2023-06-24T04:52:05;2.53;;;1.57;;
10725;SDS011;5414;59.782;16.378;2023-06-24T04:54:31;2.13;;;1.60;;
10725;SDS011;5414;59.782;16.378;2023-06-24T04:56:57;2.23;;;1.40;;
10725;SDS011;5414;59.782;16.378;2023-06-24T04:59:23;2.63;;;1.73;;
10725;SDS011;5414;59.782;16.378;2023-06-24T05:01:49;2.63;;;1.80;;
10725;SDS011;5414;59.782;16.378;2023-06-24T05:04:15;2.73;;;1.90;;
10725;SDS011;5414;59.782;16.378;2023-06-24T05:06:43;2.17;;;1.90;;
10725;SDS011;5414;59.782;16.378;2023-06-24T05:09:09;2.83;;;2.20;;
10725;SDS011;5414;59.782;16.378;2023-06-24T05:11:39;3.73;;;2.67;;
10725;SDS011;5414;59.782;16.378;2023-06-24T05:14:05;4.67;;;3.40;;
10725;SDS011;5414;59.782;16.378;2023-06-24T05:16:32;3.83;;;3.20;;
10725;SDS011;5414;59.782;16.378;2023-06-24T05:18:58;5.47;;;3.83;;
10725;SDS011;5414;59.782;16.378;2023-06-24T05:21:25;6.23;;;4.60;;
10725;SDS011;5414;59.782;16.378;2023-06-24T05:23:51;8.57;;;5.30;;
10725;SDS011;5414;59.782;16.378;2023-06-24T05:26:17;9.30;;;5.93;;
10725;SDS011;5414;59.782;16.378;2023-06-24T05:28:43;9.33;;;6.43;;
10725;SDS011;5414;59.782;16.378;2023-06-24T05:31:09;9.10;;;5.30;;
10725;SDS011;5414;59.782;16.378;2023-06-24T05:33:35;8.20;;;5.10;;
10725;SDS011;5414;59.782;16.378;2023-06-24T05:36:01;5.03;;;4.37;;
10725;SDS011;5414;59.782;16.378;2023-06-24T05:38:27;8.80;;;5.17;;
10725;SDS011;5414;59.782;16.378;2023-06-24T05:40:54;7.13;;;5.03;;
10725;SDS011;5414;59.782;16.378;2023-06-24T05:43:20;7.77;;;5.27;;
10725;SDS011;5414;59.782;16.378;2023-06-24T05:45:46;7.73;;;5.13;;
10725;SDS011;5414;59.782;16.378;2023-06-24T05:48:12;7.93;;;5.00;;
10725;SDS011;5414;59.782;16.378;2023-06-24T05:50:39;5.70;;;4.67;;
10725;SDS011;5414;59.782;16.378;2023-06-24T05:53:05;6.47;;;4.87;;
10725;SDS011;5414;59.782;16.378;2023-06-24T05:55:32;6.33;;;4.43;;
10725;SDS011;5414;59.782;16.378;2023-06-24T05:57:58;5.27;;;4.30;;
10725;SDS011;5414;59.782;16.378;2023-06-24T06:00:24;5.20;;;4.13;;
10725;SDS011;5414;59.782;16.378;2023-06-24T06:02:50;6.17;;;4.50;;
10725;SDS011;5414;59.782;16.378;2023-06-24T06:05:16;6.30;;;4.10;;
10725;SDS011;5414;59.782;16.378;2023-06-24T06:07:42;7.00;;;4.37;;
10725;SDS011;5414;59.782;16.378;2023-06-24T06:10:10;5.77;;;4.30;;
10725;SDS011;5414;59.782;16.378;2023-06-24T06:12:36;5.40;;;3.73;;
10725;SDS011;5414;59.782;16.378;2023-06-24T06:15:02;5.87;;;4.30;;
10725;SDS011;5414;59.782;16.378;2023-06-24T06:17:28;5.10;;;4.27;;
10725;SDS011;5414;59.782;16.378;2023-06-24T06:19:54;6.17;;;3.97;;
10725;SDS011;5414;59.782;16.378;2023-06-24T06:22:20;5.63;;;3.93;;
10725;SDS011;5414;59.782;16.378;2023-06-24T06:24:46;6.53;;;4.70;;
10725;SDS011;5414;59.782;16.378;2023-06-24T06:27:12;5.23;;;3.80;;
10725;SDS011;5414;59.782;16.378;2023-06-24T06:29:38;4.60;;;3.63;;
10725;SDS011;5414;59.782;16.378;2023-06-24T06:32:04;5.13;;;3.80;;
10725;SDS011;5414;59.782;16.378;2023-06-24T06:34:31;5.27;;;3.77;;
10725;SDS011;5414;59.782;16.378;2023-06-24T06:36:57;4.77;;;3.43;;
10725;SDS011;5414;59.782;16.378;2023-06-24T06:39:23;4.70;;;3.40;;
10725;SDS011;5414;59.782;16.378;2023-06-24T06:41:49;4.63;;;3.80;;
10725;SDS011;5414;59.782;16.378;2023-06-24T06:44:15;3.60;;;2.97;;
10725;SDS011;5414;59.782;16.378;2023-06-24T06:46:41;2.60;;;2.33;;
10725;SDS011;5414;59.782;16.378;2023-06-24T06:49:07;3.83;;;2.80;;
10725;SDS011;5414;59.782;16.378;2023-06-24T06:51:33;2.73;;;2.37;;
10725;SDS011;5414;59.782;16.378;2023-06-24T06:54:00;2.30;;;2.03;;
10725;SDS011;5414;59.782;16.378;2023-06-24T06:56:26;2.13;;;1.90;;
10725;SDS011;5414;59.782;16.378;2023-06-24T06:58:52;2.37;;;2.03;;
10725;SDS011;5414;59.782;16.378;2023-06-24T07:01:18;3.80;;;2.10;;
10725;SDS011;5414;59.782;16.378;2023-06-24T07:03:45;2.37;;;1.90;;
10725;SDS011;5414;59.782;16.378;2023-06-24T07:06:11;2.63;;;2.00;;
10725;SDS011;5414;59.782;16.378;2023-06-24T07:08:37;2.60;;;2.10;;
10725;SDS011;5414;59.782;16.378;2023-06-24T07:11:03;1.77;;;1.67;;
10725;SDS011;5414;59.782;16.378;2023-06-24T07:13:29;2.57;;;1.80;;
10725;SDS011;5414;59.782;16.378;2023-06-24T07:15:55;2.27;;;1.83;;
10725;SDS011;5414;59.782;16.378;2023-06-24T07:18:21;2.42;;;1.88;;
10725;SDS011;5414;59.782;16.378;2023-06-24T07:20:47;2.45;;;2.00;;
10725;SDS011;5414;59.782;16.378;2023-06-24T07:23:13;2.85;;;1.75;;
10725;SDS011;5414;59.782;16.378;2023-06-24T07:25:40;2.10;;;1.63;;
10725;SDS011;5414;59.782;16.378;2023-06-24T07:28:07;1.55;;;1.45;;
10725;SDS011;5414;59.782;16.378;2023-06-24T07:30:34;3.22;;;1.60;;
10725;SDS011;5414;59.782;16.378;2023-06-24T07:33:00;2.17;;;1.65;;
10725;SDS011;5414;59.782;16.378;2023-06-24T07:35:30;1.52;;;1.42;;
10725;SDS011;5414;59.782;16.378;2023-06-24T07:37:56;2.10;;;1.50;;
10725;SDS011;5414;59.782;16.378;2023-06-24T07:40:22;2.45;;;1.73;;
10725;SDS011;5414;59.782;16.378;2023-06-24T07:42:48;2.13;;;1.53;;
10725;SDS011;5414;59.782;16.378;2023-06-24T07:45:14;1.80;;;1.50;;
10725;SDS011;5414;59.782;16.378;2023-06-24T07:47:40;2.30;;;1.63;;
10725;SDS011;5414;59.782;16.378;2023-06-24T07:50:06;2.65;;;1.45;;
10725;SDS011;5414;59.782;16.378;2023-06-24T07:52:34;1.42;;;1.33;;
10725;SDS011;5414;59.782;16.378;2023-06-24T07:55:01;1.52;;;1.42;;
10725;SDS011;5414;59.782;16.378;2023-06-24T07:57:28;1.52;;;1.42;;
10725;SDS011;5414;59.782;16.378;2023-06-24T07:59:55;2.80;;;1.48;;
10725;SDS011;5414;59.782;16.378;2023-06-24T08:02:21;2.13;;;1.40;;
10725;SDS011;5414;59.782;16.378;2023-06-24T08:04:49;1.55;;;1.30;;
10725;SDS011;5414;59.782;16.378;2023-06-24T08:07:16;1.92;;;1.50;;
10725;SDS011;5414;59.782;16.378;2023-06-24T08:09:42;1.33;;;1.20;;
10725;SDS011;5414;59.782;16.378;2023-06-24T08:12:09;1.50;;;1.40;;
10725;SDS011;5414;59.782;16.378;2023-06-24T08:14:35;1.33;;;1.23;;
10725;SDS011;5414;59.782;16.378;2023-06-24T08:17:01;2.28;;;1.50;;
10725;SDS011;5414;59.782;16.378;2023-06-24T08:19:27;1.52;;;1.35;;
10725;SDS011;5414;59.782;16.378;2023-06-24T08:21:53;2.40;;;1.58;;
10725;SDS011;5414;59.782;16.378;2023-06-24T08:24:19;1.90;;;1.70;;
10725;SDS011;5414;59.782;16.378;2023-06-24T08:26:45;2.70;;;1.80;;
10725;SDS011;5414;59.782;16.378;2023-06-24T08:29:12;2.78;;;1.90;;
10725;SDS011;5414;59.782;16.378;2023-06-24T08:31:39;2.45;;;2.00;;
10725;SDS011;5414;59.782;16.378;2023-06-24T08:34:05;2.47;;;2.28;;
10725;SDS011;5414;59.782;16.378;2023-06-24T08:36:32;3.17;;;2.60;;
10725;SDS011;5414;59.782;16.378;2023-06-24T08:38:58;2.65;;;2.40;;
10725;SDS011;5414;59.782;16.378;2023-06-24T08:41:24;3.75;;;3.35;;
10725;SDS011;5414;59.782;16.378;2023-06-24T08:43:50;4.78;;;3.17;;
10725;SDS011;5414;59.782;16.378;2023-06-24T08:46:16;5.32;;;3.58;;
10725;SDS011;5414;59.782;16.378;2023-06-24T08:48:44;3.90;;;3.30;;
10725;SDS011;5414;59.782;16.378;2023-06-24T08:51:11;4.20;;;3.30;;
10725;SDS011;5414;59.782;16.378;2023-06-24T08:53:37;4.75;;;3.47;;
10725;SDS011;5414;59.782;16.378;2023-06-24T08:56:04;4.32;;;3.20;;
10725;SDS011;5414;59.782;16.378;2023-06-24T08:58:30;4.13;;;3.25;;
10725;SDS011;5414;59.782;16.378;2023-06-24T09:00:56;3.63;;;3.22;;
10725;SDS011;5414;59.782;16.378;2023-06-24T09:03:22;2.92;;;2.63;;
10725;SDS011;5414;59.782;16.378;2023-06-24T09:05:50;3.00;;;2.47;;
10725;SDS011;5414;59.782;16.378;2023-06-24T09:08:16;2.20;;;2.00;;
10725;SDS011;5414;59.782;16.378;2023-06-24T09:10:43;2.58;;;2.30;;
10725;SDS011;5414;59.782;16.378;2023-06-24T09:13:10;2.55;;;2.15;;
10725;SDS011;5414;59.782;16.378;2023-06-24T09:15:37;2.38;;;1.60;;
10725;SDS011;5414;59.782;16.378;2023-06-24T09:18:03;3.40;;;2.20;;
10725;SDS011;5414;59.782;16.378;2023-06-24T09:20:30;4.72;;;2.10;;
10725;SDS011;5414;59.782;16.378;2023-06-24T09:22:59;3.25;;;1.90;;
10725;SDS011;5414;59.782;16.378;2023-06-24T09:25:26;2.03;;;1.65;;
10725;SDS011;5414;59.782;16.378;2023-06-24T09:27:52;2.17;;;1.92;;
10725;SDS011;5414;59.782;16.378;2023-06-24T09:30:19;2.17;;;1.70;;
10725;SDS011;5414;59.782;16.378;2023-06-24T09:32:47;2.15;;;1.63;;
10725;SDS011;5414;59.782;16.378;2023-06-24T09:35:14;1.73;;;1.40;;
10725;SDS011;5414;59.782;16.378;2023-06-24T09:37:40;1.20;;;1.10;;
10725;SDS011;5414;59.782;16.378;2023-06-24T09:40:06;1.60;;;1.45;;
10725;SDS011;5414;59.782;16.378;2023-06-24T09:42:35;1.58;;;1.48;;
10725;SDS011;5414;59.782;16.378;2023-06-24T09:45:05;1.77;;;1.30;;
10725;SDS011;5414;59.782;16.378;2023-06-24T09:47:31;1.60;;;1.50;;
10725;SDS011;5414;59.782;16.378;2023-06-24T09:49:57;1.85;;;1.30;;
10725;SDS011;5414;59.782;16.378;2023-06-24T09:52:23;1.48;;;1.33;;
10725;SDS011;5414;59.782;16.378;2023-06-24T09:54:51;2.17;;;1.40;;
10725;SDS011;5414;59.782;16.378;2023-06-24T09:57:18;1.60;;;1.50;;
10725;SDS011;5414;59.782;16.378;2023-06-24T09:59:46;1.60;;;1.50;;
10725;SDS011;5414;59.782;16.378;2023-06-24T10:02:14;1.50;;;1.40;;
10725;SDS011;5414;59.782;16.378;2023-06-24T10:04:40;1.73;;;1.63;;
10725;SDS011;5414;59.782;16.378;2023-06-24T10:07:07;1.60;;;1.50;;
10725;SDS011;5414;59.782;16.378;2023-06-24T10:09:33;1.63;;;1.52;;
10725;SDS011;5414;59.782;16.378;2023-06-24T10:12:00;1.40;;;1.30;;
10725;SDS011;5414;59.782;16.378;2023-06-24T10:14:26;1.70;;;1.50;;
10725;SDS011;5414;59.782;16.378;2023-06-24T10:17:01;2.22;;;1.40;;
10725;SDS011;5414;59.782;16.378;2023-06-24T10:19:27;1.75;;;1.20;;
10725;SDS011;5414;59.782;16.378;2023-06-24T10:21:54;1.65;;;1.55;;
10725;SDS011;5414;59.782;16.378;2023-06-24T10:24:32;1.98;;;1.60;;
10725;SDS011;5414;59.782;16.378;2023-06-24T10:27:02;1.60;;;1.50;;
10725;SDS011;5414;59.782;16.378;2023-06-24T10:29:37;1.52;;;1.40;;
10725;SDS011;5414;59.782;16.378;2023-06-24T10:39:34;1.55;;;1.45;;
10725;SDS011;5414;59.782;16.378;2023-06-24T10:44:47;3.25;;;1.70;;
10725;SDS011;5414;59.782;16.378;2023-06-24T10:47:13;1.77;;;1.50;;
10725;SDS011;5414;59.782;16.378;2023-06-24T10:49:39;2.13;;;1.50;;
10725;SDS011;5414;59.782;16.378;2023-06-24T10:52:09;2.53;;;1.50;;
10725;SDS011;5414;59.782;16.378;2023-06-24T10:54:35;2.53;;;1.50;;
10725;SDS011;5414;59.782;16.378;2023-06-24T10:57:03;1.63;;;1.52;;
10725;SDS011;5414;59.782;16.378;2023-06-24T10:59:39;2.05;;;1.70;;
10725;SDS011;5414;59.782;16.378;2023-06-24T11:02:07;1.55;;;1.45;;
10725;SDS011;5414;59.782;16.378;2023-06-24T11:04:33;1.70;;;1.60;;
10725;SDS011;5414;59.782;16.378;2023-06-24T11:07:00;1.60;;;1.50;;
10725;SDS011;5414;59.782;16.378;2023-06-24T11:09:26;1.70;;;1.60;;
10725;SDS011;5414;59.782;16.378;2023-06-24T11:11:53;3.13;;;1.70;;
10725;SDS011;5414;59.782;16.378;2023-06-24T11:14:19;1.55;;;1.45;;
10725;SDS011;5414;59.782;16.378;2023-06-24T11:16:46;1.60;;;1.40;;
10725;SDS011;5414;59.782;16.378;2023-06-24T11:19:12;1.60;;;1.50;;
10725;SDS011;5414;59.782;16.378;2023-06-24T11:21:38;1.58;;;1.48;;
10725;SDS011;5414;59.782;16.378;2023-06-24T11:24:05;2.15;;;1.50;;
10725;SDS011;5414;59.782;16.378;2023-06-24T11:26:32;1.45;;;1.35;;
10725;SDS011;5414;59.782;16.378;2023-06-24T11:28:58;1.60;;;1.50;;
10725;SDS011;5414;59.782;16.378;2023-06-24T11:31:27;1.67;;;1.38;;
10725;SDS011;5414;59.782;16.378;2023-06-24T11:33:54;1.38;;;1.27;;
10725;SDS011;5414;59.782;16.378;2023-06-24T11:36:20;1.50;;;1.40;;
10725;SDS011;5414;59.782;16.378;2023-06-24T11:38:46;1.45;;;1.35;;
10725;SDS011;5414;59.782;16.378;2023-06-24T11:41:12;1.50;;;1.40;;
10725;SDS011;5414;59.782;16.378;2023-06-24T11:43:45;2.42;;;1.50;;
10725;SDS011;5414;59.782;16.378;2023-06-24T11:46:20;1.58;;;1.48;;
10725;SDS011;5414;59.782;16.378;2023-06-24T11:48:47;2.20;;;1.60;;
10725;SDS011;5414;59.782;16.378;2023-06-24T11:51:13;1.80;;;1.40;;
10725;SDS011;5414;59.782;16.378;2023-06-24T11:53:43;1.80;;;1.42;;
10725;SDS011;5414;59.782;16.378;2023-06-24T11:56:12;1.42;;;1.33;;
10725;SDS011;5414;59.782;16.378;2023-06-24T11:58:38;1.50;;;1.40;;
10725;SDS011;5414;59.782;16.378;2023-06-24T12:01:08;1.60;;;1.50;;
10725;SDS011;5414;59.782;16.378;2023-06-24T12:03:34;1.77;;;1.27;;
10725;SDS011;5414;59.782;16.378;2023-06-24T12:06:00;1.55;;;1.40;;
10725;SDS011;5414;59.782;16.378;2023-06-24T12:08:26;1.40;;;1.30;;
10725;SDS011;5414;59.782;16.378;2023-06-24T12:10:52;1.67;;;1.48;;
10725;SDS011;5414;59.782;16.378;2023-06-24T12:13:18;1.38;;;1.27;;
10725;SDS011;5414;59.782;16.378;2023-06-24T12:15:44;1.77;;;1.67;;
10725;SDS011;5414;59.782;16.378;2023-06-24T12:18:11;1.67;;;1.52;;
10725;SDS011;5414;59.782;16.378;2023-06-24T12:20:38;1.50;;;1.40;;
10725;SDS011;5414;59.782;16.378;2023-06-24T12:23:04;1.60;;;1.50;;
10725;SDS011;5414;59.782;16.378;2023-06-24T12:25:32;1.40;;;1.30;;
10725;SDS011;5414;59.782;16.378;2023-06-24T12:27:58;2.25;;;1.70;;
10725;SDS011;5414;59.782;16.378;2023-06-24T12:30:27;1.55;;;1.45;;
10725;SDS011;5414;59.782;16.378;2023-06-24T12:32:53;1.65;;;1.55;;
10725;SDS011;5414;59.782;16.378;2023-06-24T12:35:21;2.63;;;1.80;;
10725;SDS011;5414;59.782;16.378;2023-06-24T12:37:50;1.73;;;1.63;;
10725;SDS011;5414;59.782;16.378;2023-06-24T12:40:16;1.75;;;1.60;;
10725;SDS011;5414;59.782;16.378;2023-06-24T12:42:42;1.50;;;1.40;;
10725;SDS011;5414;59.782;16.378;2023-06-24T12:45:08;1.90;;;1.73;;
10725;SDS011;5414;59.782;16.378;2023-06-24T12:47:34;2.08;;;1.77;;
10725;SDS011;5414;59.782;16.378;2023-06-24T12:50:00;1.95;;;1.83;;
10725;SDS011;5414;59.782;16.378;2023-06-24T12:52:31;1.60;;;1.50;;
10725;SDS011;5414;59.782;16.378;2023-06-24T12:54:57;1.70;;;1.60;;
10725;SDS011;5414;59.782;16.378;2023-06-24T12:57:23;2.72;;;1.60;;
10725;SDS011;5414;59.782;16.378;2023-06-24T12:59:49;1.80;;;1.70;;
10725;SDS011;5414;59.782;16.378;2023-06-24T13:02:15;1.50;;;1.40;;
10725;SDS011;5414;59.782;16.378;2023-06-24T13:04:41;1.83;;;1.73;;
10725;SDS011;5414;59.782;16.378;2023-06-24T13:07:07;1.95;;;1.70;;
10725;SDS011;5414;59.782;16.378;2023-06-24T13:09:34;1.92;;;1.73;;
10725;SDS011;5414;59.782;16.378;2023-06-24T13:12:00;1.65;;;1.55;;
10725;SDS011;5414;59.782;16.378;2023-06-24T13:14:26;1.92;;;1.70;;
10725;SDS011;5414;59.782;16.378;2023-06-24T13:16:53;1.73;;;1.63;;
10725;SDS011;5414;59.782;16.378;2023-06-24T13:19:19;1.90;;;1.80;;
10725;SDS011;5414;59.782;16.378;2023-06-24T13:21:46;1.50;;;1.40;;
10725;SDS011;5414;59.782;16.378;2023-06-24T13:24:12;1.80;;;1.70;;
10725;SDS011;5414;59.782;16.378;2023-06-24T13:26:38;2.72;;;1.88;;
10725;SDS011;5414;59.782;16.378;2023-06-24T13:29:04;2.25;;;1.80;;
10725;SDS011;5414;59.782;16.378;2023-06-24T13:31:32;1.90;;;1.70;;
10725;SDS011;5414;59.782;16.378;2023-06-24T13:33:58;2.35;;;2.15;;
10725;SDS011;5414;59.782;16.378;2023-06-24T13:36:28;1.85;;;1.75;;
10725;SDS011;5414;59.782;16.378;2023-06-24T13:38:55;1.92;;;1.73;;
10725;SDS011;5414;59.782;16.378;2023-06-24T13:41:21;1.70;;;1.60;;
10725;SDS011;5414;59.782;16.378;2023-06-24T13:43:47;2.85;;;1.90;;
10725;SDS011;5414;59.782;16.378;2023-06-24T13:46:13;2.13;;;1.90;;
10725;SDS011;5414;59.782;16.378;2023-06-24T13:48:41;2.03;;;1.70;;
10725;SDS011;5414;59.782;16.378;2023-06-24T13:51:08;1.63;;;1.52;;
10725;SDS011;5414;59.782;16.378;2023-06-24T13:53:34;2.00;;;1.90;;
10725;SDS011;5414;59.782;16.378;2023-06-24T13:56:00;1.85;;;1.75;;
10725;SDS011;5414;59.782;16.378;2023-06-24T13:58:26;2.03;;;1.88;;
10725;SDS011;5414;59.782;16.378;2023-06-24T14:00:52;1.92;;;1.83;;
10725;SDS011;5414;59.782;16.378;2023-06-24T14:03:18;2.10;;;2.00;;
10725;SDS011;5414;59.782;16.378;2023-06-24T14:05:44;1.88;;;1.75;;
10725;SDS011;5414;59.782;16.378;2023-06-24T14:08:10;1.80;;;1.70;;
10725;SDS011;5414;59.782;16.378;2023-06-24T14:10:36;1.73;;;1.63;;
10725;SDS011;5414;59.782;16.378;2023-06-24T14:13:02;2.83;;;1.95;;
10725;SDS011;5414;59.782;16.378;2023-06-24T14:15:30;1.95;;;1.75;;
10725;SDS011;5414;59.782;16.378;2023-06-24T14:17:56;1.70;;;1.60;;
10725;SDS011;5414;59.782;16.378;2023-06-24T14:20:22;2.40;;;1.90;;
10725;SDS011;5414;59.782;16.378;2023-06-24T14:22:49;1.80;;;1.70;;
10725;SDS011;5414;59.782;16.378;2023-06-24T14:25:15;1.92;;;1.63;;
10725;SDS011;5414;59.782;16.378;2023-06-24T14:27:42;2.30;;;1.70;;
10725;SDS011;5414;59.782;16.378;2023-06-24T14:30:08;1.90;;;1.80;;
10725;SDS011;5414;59.782;16.378;2023-06-24T14:32:34;1.98;;;1.77;;
10725;SDS011;5414;59.782;16.378;2023-06-24T14:35:00;1.90;;;1.80;;
10725;SDS011;5414;59.782;16.378;2023-06-24T14:37:26;1.83;;;1.67;;
10725;SDS011;5414;59.782;16.378;2023-06-24T14:39:52;1.98;;;1.85;;
10725;SDS011;5414;59.782;16.378;2023-06-24T14:42:18;2.20;;;2.00;;
10725;SDS011;5414;59.782;16.378;2023-06-24T14:44:44;1.95;;;1.80;;
10725;SDS011;5414;59.782;16.378;2023-06-24T14:47:10;2.80;;;1.95;;
10725;SDS011;5414;59.782;16.378;2023-06-24T14:49:36;2.97;;;1.85;;
10725;SDS011;5414;59.782;16.378;2023-06-24T14:52:02;2.35;;;2.10;;
10725;SDS011;5414;59.782;16.378;2023-06-24T14:54:28;2.60;;;1.90;;
10725;SDS011;5414;59.782;16.378;2023-06-24T14:56:54;2.42;;;1.90;;
10725;SDS011;5414;59.782;16.378;2023-06-24T14:59:20;2.20;;;2.00;;
10725;SDS011;5414;59.782;16.378;2023-06-24T15:01:47;2.13;;;2.03;;
10725;SDS011;5414;59.782;16.378;2023-06-24T15:04:12;2.30;;;1.80;;
10725;SDS011;5414;59.782;16.378;2023-06-24T15:06:39;2.20;;;2.10;;
10725;SDS011;5414;59.782;16.378;2023-06-24T15:09:05;2.17;;;1.98;;